sensor_id;sensor_type;location;lat;lon;timestamp;P1;durP1;ratioP1;P2;durP2;ratioP2
15921;SDS011;8060;50.948;3.146;2023-05-16T04:23:39;12.00;;;3.40;;
15921;SDS011;8060;50.948;3.146;2023-05-16T04:26:07;11.13;;;2.83;;
15921;SDS011;8060;50.948;3.146;2023-05-16T04:28:35;14.77;;;3.57;;
15921;SDS011;8060;50.948;3.146;2023-05-16T04:31:03;12.90;;;3.40;;
15921;SDS011;8060;50.948;3.146;2023-05-16T04:33:31;11.73;;;3.20;;
15921;SDS011;8060;50.948;3.146;2023-05-16T04:35:59;14.50;;;4.17;;
15921;SDS011;8060;50.948;3.146;2023-05-16T04:38:29;13.07;;;3.03;;
15921;SDS011;8060;50.948;3.146;2023-05-16T04:40:58;15.53;;;3.83;;
15921;SDS011;8060;50.948;3.146;2023-05-16T04:43:27;10.70;;;3.00;;
15921;SDS011;8060;50.948;3.146;2023-05-16T04:45:55;12.90;;;3.40;;
15921;SDS011;8060;50.948;3.146;2023-05-16T04:48:24;14.97;;;3.00;;
15921;SDS011;8060;50.948;3.146;2023-05-16T04:50:52;12.03;;;3.23;;
15921;SDS011;8060;50.948;3.146;2023-05-16T04:53:20;11.70;;;3.10;;
15921;SDS011;8060;50.948;3.146;2023-05-16T04:55:48;15.50;;;2.97;;
15921;SDS011;8060;50.948;3.146;2023-05-16T04:58:18;11.93;;;2.87;;
15921;SDS011;8060;50.948;3.146;2023-05-16T05:00:46;14.13;;;3.13;;
15921;SDS011;8060;50.948;3.146;2023-05-16T05:03:14;10.23;;;3.07;;
15921;SDS011;8060;50.948;3.146;2023-05-16T05:05:42;13.83;;;2.90;;
15921;SDS011;8060;50.948;3.146;2023-05-16T05:08:11;18.20;;;3.30;;
15921;SDS011;8060;50.948;3.146;2023-05-16T05:10:39;15.00;;;3.50;;
15921;SDS011;8060;50.948;3.146;2023-05-16T05:13:07;8.67;;;3.13;;
15921;SDS011;8060;50.948;3.146;2023-05-16T05:15:38;10.03;;;2.93;;
15921;SDS011;8060;50.948;3.146;2023-05-16T05:18:07;18.17;;;4.43;;
15921;SDS011;8060;50.948;3.146;2023-05-16T05:20:35;14.00;;;2.77;;
15921;SDS011;8060;50.948;3.146;2023-05-16T05:23:03;16.17;;;3.40;;
15921;SDS011;8060;50.948;3.146;2023-05-16T05:25:31;14.40;;;3.07;;
15921;SDS011;8060;50.948;3.146;2023-05-16T05:28:03;12.73;;;2.60;;
15921;SDS011;8060;50.948;3.146;2023-05-16T05:30:31;9.63;;;2.77;;
15921;SDS011;8060;50.948;3.146;2023-05-16T05:33:00;10.40;;;2.73;;
15921;SDS011;8060;50.948;3.146;2023-05-16T05:35:29;12.07;;;2.43;;
15921;SDS011;8060;50.948;3.146;2023-05-16T05:37:57;12.07;;;2.83;;
15921;SDS011;8060;50.948;3.146;2023-05-16T05:40:25;11.90;;;3.27;;
15921;SDS011;8060;50.948;3.146;2023-05-16T05:42:53;10.83;;;2.30;;
15921;SDS011;8060;50.948;3.146;2023-05-16T05:45:21;14.17;;;3.27;;
15921;SDS011;8060;50.948;3.146;2023-05-16T05:47:49;12.23;;;2.60;;
15921;SDS011;8060;50.948;3.146;2023-05-16T05:50:19;10.57;;;2.43;;
15921;SDS011;8060;50.948;3.146;2023-05-16T05:52:47;16.63;;;2.60;;
15921;SDS011;8060;50.948;3.146;2023-05-16T05:55:15;14.63;;;2.47;;
15921;SDS011;8060;50.948;3.146;2023-05-16T05:57:43;12.97;;;2.33;;
15921;SDS011;8060;50.948;3.146;2023-05-16T06:00:12;14.50;;;2.63;;
15921;SDS011;8060;50.948;3.146;2023-05-16T06:02:40;14.87;;;2.60;;
15921;SDS011;8060;50.948;3.146;2023-05-16T06:05:09;14.37;;;2.50;;
15921;SDS011;8060;50.948;3.146;2023-05-16T06:07:39;10.00;;;2.40;;
15921;SDS011;8060;50.948;3.146;2023-05-16T06:10:07;14.37;;;2.90;;
15921;SDS011;8060;50.948;3.146;2023-05-16T06:12:36;13.33;;;2.60;;
15921;SDS011;8060;50.948;3.146;2023-05-16T06:15:04;12.23;;;2.60;;
15921;SDS011;8060;50.948;3.146;2023-05-16T06:17:33;13.17;;;2.60;;
15921;SDS011;8060;50.948;3.146;2023-05-16T06:20:01;13.37;;;2.63;;
15921;SDS011;8060;50.948;3.146;2023-05-16T06:22:30;11.70;;;2.57;;
15921;SDS011;8060;50.948;3.146;2023-05-16T06:24:59;15.87;;;2.07;;
15921;SDS011;8060;50.948;3.146;2023-05-16T06:27:27;8.93;;;2.37;;
15921;SDS011;8060;50.948;3.146;2023-05-16T06:29:55;13.70;;;2.33;;
15921;SDS011;8060;50.948;3.146;2023-05-16T06:32:23;13.77;;;2.80;;
15921;SDS011;8060;50.948;3.146;2023-05-16T06:34:52;13.50;;;2.50;;
15921;SDS011;8060;50.948;3.146;2023-05-16T06:37:20;13.03;;;2.27;;
15921;SDS011;8060;50.948;3.146;2023-05-16T06:39:48;10.90;;;2.50;;
15921;SDS011;8060;50.948;3.146;2023-05-16T06:42:18;8.93;;;2.17;;
15921;SDS011;8060;50.948;3.146;2023-05-16T06:44:46;11.93;;;2.10;;
15921;SDS011;8060;50.948;3.146;2023-05-16T06:47:14;14.17;;;2.67;;
15921;SDS011;8060;50.948;3.146;2023-05-16T06:49:42;11.70;;;2.23;;
15921;SDS011;8060;50.948;3.146;2023-05-16T06:52:11;18.47;;;2.50;;
15921;SDS011;8060;50.948;3.146;2023-05-16T06:54:39;15.63;;;2.03;;
15921;SDS011;8060;50.948;3.146;2023-05-16T06:57:07;9.20;;;1.60;;
15921;SDS011;8060;50.948;3.146;2023-05-16T06:59:36;14.07;;;2.20;;
15921;SDS011;8060;50.948;3.146;2023-05-16T07:02:05;14.63;;;2.90;;
15921;SDS011;8060;50.948;3.146;2023-05-16T07:04:33;9.67;;;1.60;;
15921;SDS011;8060;50.948;3.146;2023-05-16T07:07:03;9.17;;;1.60;;
15921;SDS011;8060;50.948;3.146;2023-05-16T07:09:33;11.63;;;1.80;;
15921;SDS011;8060;50.948;3.146;2023-05-16T07:12:01;11.70;;;2.03;;
15921;SDS011;8060;50.948;3.146;2023-05-16T07:14:29;11.33;;;1.87;;
15921;SDS011;8060;50.948;3.146;2023-05-16T07:16:58;10.20;;;1.50;;
15921;SDS011;8060;50.948;3.146;2023-05-16T07:19:26;12.37;;;1.93;;
15921;SDS011;8060;50.948;3.146;2023-05-16T07:21:55;14.30;;;2.03;;
15921;SDS011;8060;50.948;3.146;2023-05-16T07:24:23;8.97;;;1.40;;
15921;SDS011;8060;50.948;3.146;2023-05-16T07:26:51;12.10;;;1.90;;
15921;SDS011;8060;50.948;3.146;2023-05-16T07:29:19;11.17;;;1.70;;
15921;SDS011;8060;50.948;3.146;2023-05-16T07:31:47;6.90;;;1.13;;
15921;SDS011;8060;50.948;3.146;2023-05-16T07:34:16;7.83;;;1.20;;
15921;SDS011;8060;50.948;3.146;2023-05-16T07:36:45;10.13;;;1.37;;
15921;SDS011;8060;50.948;3.146;2023-05-16T07:39:13;7.27;;;1.27;;
15921;SDS011;8060;50.948;3.146;2023-05-16T07:41:41;10.97;;;1.30;;
15921;SDS011;8060;50.948;3.146;2023-05-16T07:44:10;8.33;;;1.10;;
15921;SDS011;8060;50.948;3.146;2023-05-16T07:46:38;8.23;;;1.77;;
15921;SDS011;8060;50.948;3.146;2023-05-16T07:49:06;8.70;;;1.40;;
15921;SDS011;8060;50.948;3.146;2023-05-16T07:51:36;8.83;;;1.67;;
15921;SDS011;8060;50.948;3.146;2023-05-16T07:54:04;5.23;;;1.20;;
15921;SDS011;8060;50.948;3.146;2023-05-16T07:56:32;6.70;;;1.40;;
15921;SDS011;8060;50.948;3.146;2023-05-16T07:59:00;8.53;;;1.70;;
15921;SDS011;8060;50.948;3.146;2023-05-16T08:01:31;6.50;;;1.17;;
15921;SDS011;8060;50.948;3.146;2023-05-16T08:03:59;5.33;;;1.13;;
15921;SDS011;8060;50.948;3.146;2023-05-16T08:06:27;9.93;;;1.63;;
15921;SDS011;8060;50.948;3.146;2023-05-16T08:08:57;12.77;;;1.90;;
15921;SDS011;8060;50.948;3.146;2023-05-16T08:11:26;6.43;;;1.27;;
15921;SDS011;8060;50.948;3.146;2023-05-16T08:13:54;12.87;;;1.70;;
15921;SDS011;8060;50.948;3.146;2023-05-16T08:16:22;6.60;;;1.33;;
15921;SDS011;8060;50.948;3.146;2023-05-16T08:18:51;12.20;;;1.60;;
15921;SDS011;8060;50.948;3.146;2023-05-16T08:21:19;8.17;;;1.93;;
15921;SDS011;8060;50.948;3.146;2023-05-16T08:23:47;5.70;;;1.50;;
15921;SDS011;8060;50.948;3.146;2023-05-16T08:26:16;8.63;;;1.43;;
15921;SDS011;8060;50.948;3.146;2023-05-16T08:28:45;7.90;;;1.70;;
15921;SDS011;8060;50.948;3.146;2023-05-16T08:31:13;9.30;;;1.30;;
15921;SDS011;8060;50.948;3.146;2023-05-16T08:33:41;7.40;;;1.30;;
15921;SDS011;8060;50.948;3.146;2023-05-16T08:36:09;8.80;;;1.43;;
15921;SDS011;8060;50.948;3.146;2023-05-16T08:38:37;10.17;;;1.97;;
15921;SDS011;8060;50.948;3.146;2023-05-16T08:41:06;5.93;;;1.20;;
15921;SDS011;8060;50.948;3.146;2023-05-16T08:43:35;9.10;;;1.50;;
15921;SDS011;8060;50.948;3.146;2023-05-16T08:46:05;8.50;;;1.33;;
15921;SDS011;8060;50.948;3.146;2023-05-16T08:48:34;5.23;;;1.23;;
15921;SDS011;8060;50.948;3.146;2023-05-16T08:51:05;9.67;;;1.60;;
15921;SDS011;8060;50.948;3.146;2023-05-16T08:53:36;8.57;;;1.40;;
15921;SDS011;8060;50.948;3.146;2023-05-16T08:56:07;7.83;;;1.23;;
15921;SDS011;8060;50.948;3.146;2023-05-16T08:58:38;5.70;;;1.40;;
15921;SDS011;8060;50.948;3.146;2023-05-16T09:01:06;11.97;;;1.90;;
15921;SDS011;8060;50.948;3.146;2023-05-16T09:03:35;10.80;;;1.53;;
15921;SDS011;8060;50.948;3.146;2023-05-16T09:06:04;5.80;;;1.30;;
15921;SDS011;8060;50.948;3.146;2023-05-16T09:08:33;7.53;;;1.47;;
15921;SDS011;8060;50.948;3.146;2023-05-16T09:11:02;4.47;;;1.03;;
15921;SDS011;8060;50.948;3.146;2023-05-16T09:13:30;8.60;;;1.43;;
15921;SDS011;8060;50.948;3.146;2023-05-16T09:16:10;4.80;;;1.07;;
15921;SDS011;8060;50.948;3.146;2023-05-16T09:18:40;6.33;;;1.47;;
15921;SDS011;8060;50.948;3.146;2023-05-16T09:21:11;6.77;;;1.20;;
15921;SDS011;8060;50.948;3.146;2023-05-16T09:23:41;5.77;;;1.10;;
15921;SDS011;8060;50.948;3.146;2023-05-16T09:26:10;9.00;;;1.37;;
15921;SDS011;8060;50.948;3.146;2023-05-16T09:28:38;5.77;;;1.23;;
15921;SDS011;8060;50.948;3.146;2023-05-16T09:31:19;7.13;;;1.50;;
15921;SDS011;8060;50.948;3.146;2023-05-16T09:33:50;5.57;;;1.30;;
15921;SDS011;8060;50.948;3.146;2023-05-16T09:36:18;7.83;;;1.90;;
15921;SDS011;8060;50.948;3.146;2023-05-16T09:38:46;8.53;;;1.50;;
15921;SDS011;8060;50.948;3.146;2023-05-16T09:41:14;7.00;;;1.20;;
15921;SDS011;8060;50.948;3.146;2023-05-16T09:43:43;7.47;;;1.47;;
15921;SDS011;8060;50.948;3.146;2023-05-16T09:46:11;6.57;;;1.20;;
15921;SDS011;8060;50.948;3.146;2023-05-16T09:48:43;9.17;;;1.40;;
15921;SDS011;8060;50.948;3.146;2023-05-16T09:51:12;7.60;;;1.20;;
15921;SDS011;8060;50.948;3.146;2023-05-16T09:53:41;6.43;;;1.23;;
15921;SDS011;8060;50.948;3.146;2023-05-16T09:56:10;5.83;;;1.00;;
15921;SDS011;8060;50.948;3.146;2023-05-16T09:58:41;6.53;;;1.30;;
15921;SDS011;8060;50.948;3.146;2023-05-16T10:01:10;7.80;;;1.50;;
15921;SDS011;8060;50.948;3.146;2023-05-16T10:03:39;7.90;;;1.43;;
15921;SDS011;8060;50.948;3.146;2023-05-16T10:06:10;6.63;;;1.77;;
15921;SDS011;8060;50.948;3.146;2023-05-16T10:08:40;7.17;;;1.10;;
15921;SDS011;8060;50.948;3.146;2023-05-16T10:11:09;5.73;;;1.20;;
15921;SDS011;8060;50.948;3.146;2023-05-16T10:13:38;7.60;;;1.57;;
15921;SDS011;8060;50.948;3.146;2023-05-16T10:16:09;6.73;;;1.30;;
15921;SDS011;8060;50.948;3.146;2023-05-16T10:18:38;5.63;;;1.23;;
15921;SDS011;8060;50.948;3.146;2023-05-16T10:21:08;6.30;;;1.20;;
15921;SDS011;8060;50.948;3.146;2023-05-16T10:23:41;5.33;;;1.10;;
15921;SDS011;8060;50.948;3.146;2023-05-16T10:26:10;5.57;;;1.37;;
15921;SDS011;8060;50.948;3.146;2023-05-16T10:28:40;8.03;;;1.30;;
15921;SDS011;8060;50.948;3.146;2023-05-16T10:31:09;6.20;;;1.23;;
15921;SDS011;8060;50.948;3.146;2023-05-16T10:33:38;5.90;;;1.40;;
15921;SDS011;8060;50.948;3.146;2023-05-16T10:36:06;5.47;;;1.43;;
15921;SDS011;8060;50.948;3.146;2023-05-16T10:38:37;4.77;;;0.93;;
15921;SDS011;8060;50.948;3.146;2023-05-16T10:41:07;5.07;;;0.97;;
15921;SDS011;8060;50.948;3.146;2023-05-16T10:43:35;7.40;;;1.80;;
15921;SDS011;8060;50.948;3.146;2023-05-16T10:46:04;5.50;;;1.00;;
15921;SDS011;8060;50.948;3.146;2023-05-16T10:48:36;6.07;;;1.23;;
15921;SDS011;8060;50.948;3.146;2023-05-16T10:54:08;5.90;;;1.20;;
15921;SDS011;8060;50.948;3.146;2023-05-16T10:56:38;5.37;;;0.97;;
15921;SDS011;8060;50.948;3.146;2023-05-16T10:59:21;4.47;;;1.30;;
15921;SDS011;8060;50.948;3.146;2023-05-16T11:01:51;3.83;;;1.00;;
15921;SDS011;8060;50.948;3.146;2023-05-16T11:04:20;4.33;;;1.23;;
15921;SDS011;8060;50.948;3.146;2023-05-16T11:06:49;6.80;;;1.40;;
15921;SDS011;8060;50.948;3.146;2023-05-16T11:09:21;4.27;;;1.53;;
15921;SDS011;8060;50.948;3.146;2023-05-16T11:11:54;5.20;;;1.03;;
15921;SDS011;8060;50.948;3.146;2023-05-16T11:14:28;3.10;;;1.10;;
15921;SDS011;8060;50.948;3.146;2023-05-16T11:17:05;5.77;;;1.13;;
15921;SDS011;8060;50.948;3.146;2023-05-16T11:19:38;4.90;;;1.00;;
15921;SDS011;8060;50.948;3.146;2023-05-16T11:24:57;4.23;;;1.10;;
15921;SDS011;8060;50.948;3.146;2023-05-16T11:27:27;4.00;;;0.93;;
15921;SDS011;8060;50.948;3.146;2023-05-16T11:30:00;4.43;;;1.30;;
15921;SDS011;8060;50.948;3.146;2023-05-16T11:32:38;4.70;;;0.90;;
15921;SDS011;8060;50.948;3.146;2023-05-16T11:35:08;2.53;;;0.80;;
15921;SDS011;8060;50.948;3.146;2023-05-16T11:37:40;5.13;;;1.00;;
15921;SDS011;8060;50.948;3.146;2023-05-16T11:40:10;3.97;;;0.90;;
15921;SDS011;8060;50.948;3.146;2023-05-16T11:42:42;6.10;;;1.27;;
15921;SDS011;8060;50.948;3.146;2023-05-16T11:45:14;4.30;;;0.70;;
15921;SDS011;8060;50.948;3.146;2023-05-16T11:47:44;2.50;;;0.70;;
15921;SDS011;8060;50.948;3.146;2023-05-16T11:50:14;2.97;;;0.80;;
15921;SDS011;8060;50.948;3.146;2023-05-16T11:52:44;5.53;;;0.90;;
15921;SDS011;8060;50.948;3.146;2023-05-16T11:55:15;5.00;;;1.20;;
15921;SDS011;8060;50.948;3.146;2023-05-16T11:58:03;4.60;;;1.00;;
15921;SDS011;8060;50.948;3.146;2023-05-16T12:00:32;5.23;;;1.00;;
15921;SDS011;8060;50.948;3.146;2023-05-16T12:03:00;6.40;;;1.07;;
15921;SDS011;8060;50.948;3.146;2023-05-16T12:05:31;5.57;;;1.00;;
15921;SDS011;8060;50.948;3.146;2023-05-16T12:08:01;6.20;;;0.90;;
15921;SDS011;8060;50.948;3.146;2023-05-16T12:10:31;6.07;;;1.00;;
15921;SDS011;8060;50.948;3.146;2023-05-16T12:13:00;3.90;;;0.83;;
15921;SDS011;8060;50.948;3.146;2023-05-16T12:15:29;4.70;;;1.30;;
15921;SDS011;8060;50.948;3.146;2023-05-16T12:17:58;4.50;;;0.90;;
15921;SDS011;8060;50.948;3.146;2023-05-16T12:20:27;5.23;;;1.10;;
15921;SDS011;8060;50.948;3.146;2023-05-16T12:22:56;4.47;;;0.70;;
15921;SDS011;8060;50.948;3.146;2023-05-16T12:25:25;4.50;;;0.90;;
15921;SDS011;8060;50.948;3.146;2023-05-16T12:27:57;3.40;;;0.70;;
15921;SDS011;8060;50.948;3.146;2023-05-16T12:30:27;5.57;;;0.83;;
15921;SDS011;8060;50.948;3.146;2023-05-16T12:32:57;2.93;;;0.80;;
15921;SDS011;8060;50.948;3.146;2023-05-16T12:35:28;2.83;;;0.87;;
15921;SDS011;8060;50.948;3.146;2023-05-16T12:37:57;5.73;;;1.13;;
15921;SDS011;8060;50.948;3.146;2023-05-16T12:40:27;3.70;;;0.90;;
15921;SDS011;8060;50.948;3.146;2023-05-16T12:42:57;3.60;;;0.90;;
15921;SDS011;8060;50.948;3.146;2023-05-16T12:45:26;6.37;;;1.13;;
15921;SDS011;8060;50.948;3.146;2023-05-16T12:47:54;4.93;;;0.87;;
15921;SDS011;8060;50.948;3.146;2023-05-16T12:50:26;4.97;;;1.00;;
15921;SDS011;8060;50.948;3.146;2023-05-16T12:52:57;3.47;;;0.90;;
15921;SDS011;8060;50.948;3.146;2023-05-16T12:55:27;5.97;;;1.10;;
15921;SDS011;8060;50.948;3.146;2023-05-16T12:57:55;1.90;;;0.70;;
15921;SDS011;8060;50.948;3.146;2023-05-16T13:00:27;3.07;;;0.93;;
15921;SDS011;8060;50.948;3.146;2023-05-16T13:02:56;6.00;;;0.90;;
15921;SDS011;8060;50.948;3.146;2023-05-16T13:05:25;4.20;;;0.80;;
15921;SDS011;8060;50.948;3.146;2023-05-16T13:07:53;5.00;;;1.10;;
15921;SDS011;8060;50.948;3.146;2023-05-16T13:10:21;2.90;;;1.17;;
15921;SDS011;8060;50.948;3.146;2023-05-16T13:12:51;6.80;;;1.00;;
15921;SDS011;8060;50.948;3.146;2023-05-16T13:15:20;3.77;;;1.17;;
15921;SDS011;8060;50.948;3.146;2023-05-16T13:17:49;5.07;;;1.20;;
15921;SDS011;8060;50.948;3.146;2023-05-16T13:20:17;3.70;;;1.00;;
15921;SDS011;8060;50.948;3.146;2023-05-16T13:22:46;4.20;;;1.20;;
15921;SDS011;8060;50.948;3.146;2023-05-16T13:25:14;3.43;;;1.00;;
15921;SDS011;8060;50.948;3.146;2023-05-16T13:27:42;4.50;;;0.90;;
15921;SDS011;8060;50.948;3.146;2023-05-16T13:30:11;6.37;;;1.10;;
15921;SDS011;8060;50.948;3.146;2023-05-16T13:32:41;5.83;;;1.30;;
15921;SDS011;8060;50.948;3.146;2023-05-16T13:35:09;3.77;;;0.97;;
15921;SDS011;8060;50.948;3.146;2023-05-16T13:37:37;4.23;;;0.90;;
15921;SDS011;8060;50.948;3.146;2023-05-16T13:40:07;3.63;;;0.90;;
15921;SDS011;8060;50.948;3.146;2023-05-16T13:42:36;4.80;;;1.30;;
15921;SDS011;8060;50.948;3.146;2023-05-16T13:45:05;4.03;;;0.97;;
15921;SDS011;8060;50.948;3.146;2023-05-16T13:47:34;7.60;;;1.20;;
15921;SDS011;8060;50.948;3.146;2023-05-16T13:50:05;6.60;;;1.17;;
15921;SDS011;8060;50.948;3.146;2023-05-16T13:52:35;2.03;;;0.67;;
15921;SDS011;8060;50.948;3.146;2023-05-16T13:55:04;3.37;;;0.73;;
15921;SDS011;8060;50.948;3.146;2023-05-16T13:57:33;3.10;;;0.80;;
15921;SDS011;8060;50.948;3.146;2023-05-16T14:00:01;3.40;;;0.90;;
15921;SDS011;8060;50.948;3.146;2023-05-16T14:02:53;3.23;;;0.80;;
15921;SDS011;8060;50.948;3.146;2023-05-16T14:05:23;4.93;;;0.70;;
15921;SDS011;8060;50.948;3.146;2023-05-16T14:07:52;3.40;;;0.80;;
15921;SDS011;8060;50.948;3.146;2023-05-16T14:10:20;3.07;;;1.00;;
15921;SDS011;8060;50.948;3.146;2023-05-16T14:12:48;3.27;;;1.10;;
15921;SDS011;8060;50.948;3.146;2023-05-16T14:15:17;3.60;;;0.97;;
15921;SDS011;8060;50.948;3.146;2023-05-16T14:17:45;5.83;;;1.20;;
15921;SDS011;8060;50.948;3.146;2023-05-16T14:20:13;3.10;;;0.87;;
15921;SDS011;8060;50.948;3.146;2023-05-16T14:22:43;3.77;;;1.03;;
15921;SDS011;8060;50.948;3.146;2023-05-16T14:25:11;4.93;;;1.23;;
15921;SDS011;8060;50.948;3.146;2023-05-16T14:27:39;7.00;;;1.00;;
15921;SDS011;8060;50.948;3.146;2023-05-16T14:30:08;4.37;;;0.83;;
15921;SDS011;8060;50.948;3.146;2023-05-16T14:32:37;3.33;;;0.80;;
15921;SDS011;8060;50.948;3.146;2023-05-16T14:35:05;5.40;;;0.80;;
15921;SDS011;8060;50.948;3.146;2023-05-16T14:37:34;3.67;;;0.70;;
15921;SDS011;8060;50.948;3.146;2023-05-16T14:40:05;5.17;;;0.80;;
15921;SDS011;8060;50.948;3.146;2023-05-16T14:42:34;2.73;;;0.70;;
15921;SDS011;8060;50.948;3.146;2023-05-16T14:45:02;2.27;;;0.70;;
15921;SDS011;8060;50.948;3.146;2023-05-16T14:47:32;6.20;;;0.80;;
15921;SDS011;8060;50.948;3.146;2023-05-16T14:50:00;5.10;;;0.77;;
15921;SDS011;8060;50.948;3.146;2023-05-16T14:52:28;4.77;;;0.90;;
15921;SDS011;8060;50.948;3.146;2023-05-16T14:54:57;2.93;;;1.00;;
15921;SDS011;8060;50.948;3.146;2023-05-16T14:57:26;5.03;;;1.20;;
15921;SDS011;8060;50.948;3.146;2023-05-16T14:59:54;4.70;;;0.90;;
15921;SDS011;8060;50.948;3.146;2023-05-16T15:02:23;4.53;;;1.17;;
15921;SDS011;8060;50.948;3.146;2023-05-16T15:04:53;3.60;;;0.77;;
15921;SDS011;8060;50.948;3.146;2023-05-16T15:07:21;6.93;;;1.00;;
15921;SDS011;8060;50.948;3.146;2023-05-16T15:09:49;5.70;;;1.27;;
15921;SDS011;8060;50.948;3.146;2023-05-16T15:12:17;5.33;;;0.90;;
15921;SDS011;8060;50.948;3.146;2023-05-16T15:14:47;3.07;;;0.70;;
15921;SDS011;8060;50.948;3.146;2023-05-16T15:17:16;5.07;;;0.90;;
15921;SDS011;8060;50.948;3.146;2023-05-16T15:19:44;5.60;;;1.53;;
15921;SDS011;8060;50.948;3.146;2023-05-16T15:22:13;3.07;;;0.90;;
15921;SDS011;8060;50.948;3.146;2023-05-16T15:24:41;5.50;;;1.00;;
15921;SDS011;8060;50.948;3.146;2023-05-16T15:27:09;3.83;;;1.00;;
15921;SDS011;8060;50.948;3.146;2023-05-16T15:29:38;4.67;;;1.10;;
15921;SDS011;8060;50.948;3.146;2023-05-16T15:32:08;3.27;;;1.03;;
15921;SDS011;8060;50.948;3.146;2023-05-16T15:34:39;5.63;;;0.90;;
15921;SDS011;8060;50.948;3.146;2023-05-16T15:37:07;6.80;;;0.93;;
15921;SDS011;8060;50.948;3.146;2023-05-16T15:39:35;3.53;;;0.87;;
15921;SDS011;8060;50.948;3.146;2023-05-16T15:42:04;3.57;;;0.93;;
15921;SDS011;8060;50.948;3.146;2023-05-16T15:44:36;3.73;;;1.37;;
15921;SDS011;8060;50.948;3.146;2023-05-16T15:47:05;2.53;;;0.93;;
15921;SDS011;8060;50.948;3.146;2023-05-16T15:49:36;4.27;;;1.07;;
15921;SDS011;8060;50.948;3.146;2023-05-16T15:52:04;5.13;;;1.30;;
15921;SDS011;8060;50.948;3.146;2023-05-16T15:54:32;5.40;;;1.30;;
15921;SDS011;8060;50.948;3.146;2023-05-16T15:57:00;5.60;;;1.17;;
15921;SDS011;8060;50.948;3.146;2023-05-16T15:59:29;4.87;;;1.10;;
15921;SDS011;8060;50.948;3.146;2023-05-16T16:01:57;4.33;;;1.40;;
15921;SDS011;8060;50.948;3.146;2023-05-16T16:04:30;5.93;;;1.47;;
15921;SDS011;8060;50.948;3.146;2023-05-16T16:06:59;6.50;;;1.57;;
15921;SDS011;8060;50.948;3.146;2023-05-16T16:09:27;5.00;;;1.10;;
15921;SDS011;8060;50.948;3.146;2023-05-16T16:11:55;5.23;;;1.50;;
15921;SDS011;8060;50.948;3.146;2023-05-16T16:14:23;9.60;;;1.60;;
15921;SDS011;8060;50.948;3.146;2023-05-16T16:16:51;6.47;;;1.67;;
15921;SDS011;8060;50.948;3.146;2023-05-16T16:19:19;8.13;;;1.90;;
15921;SDS011;8060;50.948;3.146;2023-05-16T16:21:49;7.13;;;1.50;;
15921;SDS011;8060;50.948;3.146;2023-05-16T16:24:18;8.37;;;2.03;;
15921;SDS011;8060;50.948;3.146;2023-05-16T16:26:46;7.57;;;2.10;;
15921;SDS011;8060;50.948;3.146;2023-05-16T16:29:14;7.33;;;2.43;;
15921;SDS011;8060;50.948;3.146;2023-05-16T16:31:42;7.80;;;2.03;;
15921;SDS011;8060;50.948;3.146;2023-05-16T16:34:10;6.47;;;1.63;;
15921;SDS011;8060;50.948;3.146;2023-05-16T16:36:39;11.17;;;1.83;;
15921;SDS011;8060;50.948;3.146;2023-05-16T16:39:08;6.53;;;1.80;;
15921;SDS011;8060;50.948;3.146;2023-05-16T16:41:36;5.20;;;1.80;;
15921;SDS011;8060;50.948;3.146;2023-05-16T16:44:05;5.43;;;1.70;;
15921;SDS011;8060;50.948;3.146;2023-05-16T16:46:33;5.40;;;1.63;;
15921;SDS011;8060;50.948;3.146;2023-05-16T16:49:01;8.40;;;2.03;;
15921;SDS011;8060;50.948;3.146;2023-05-16T16:51:30;5.67;;;1.57;;
15921;SDS011;8060;50.948;3.146;2023-05-16T16:54:00;6.73;;;1.80;;
15921;SDS011;8060;50.948;3.146;2023-05-16T16:56:29;7.73;;;2.63;;
15921;SDS011;8060;50.948;3.146;2023-05-16T16:58:57;20.03;;;2.90;;
15921;SDS011;8060;50.948;3.146;2023-05-16T17:01:26;9.50;;;2.17;;
15921;SDS011;8060;50.948;3.146;2023-05-16T17:03:57;6.00;;;1.83;;
15921;SDS011;8060;50.948;3.146;2023-05-16T17:06:26;7.13;;;1.80;;
15921;SDS011;8060;50.948;3.146;2023-05-16T17:08:55;8.27;;;2.00;;
15921;SDS011;8060;50.948;3.146;2023-05-16T17:11:27;10.50;;;2.20;;
15921;SDS011;8060;50.948;3.146;2023-05-16T17:14:01;6.30;;;1.73;;
15921;SDS011;8060;50.948;3.146;2023-05-16T17:16:31;9.63;;;2.20;;
15921;SDS011;8060;50.948;3.146;2023-05-16T17:18:59;7.37;;;1.77;;
15921;SDS011;8060;50.948;3.146;2023-05-16T17:21:27;7.63;;;1.90;;
15921;SDS011;8060;50.948;3.146;2023-05-16T17:23:56;6.87;;;2.13;;
15921;SDS011;8060;50.948;3.146;2023-05-16T17:26:24;7.20;;;1.93;;
15921;SDS011;8060;50.948;3.146;2023-05-16T17:28:55;8.87;;;1.90;;
15921;SDS011;8060;50.948;3.146;2023-05-16T17:31:23;7.30;;;2.33;;
15921;SDS011;8060;50.948;3.146;2023-05-16T17:33:52;11.13;;;2.70;;
15921;SDS011;8060;50.948;3.146;2023-05-16T17:36:20;9.37;;;1.90;;
15921;SDS011;8060;50.948;3.146;2023-05-16T17:38:48;6.23;;;1.80;;
15921;SDS011;8060;50.948;3.146;2023-05-16T17:41:16;9.40;;;2.20;;
15921;SDS011;8060;50.948;3.146;2023-05-16T17:43:45;5.53;;;1.90;;
15921;SDS011;8060;50.948;3.146;2023-05-16T17:46:14;10.67;;;2.10;;
15921;SDS011;8060;50.948;3.146;2023-05-16T17:48:43;6.10;;;1.80;;
15921;SDS011;8060;50.948;3.146;2023-05-16T17:51:11;8.03;;;1.83;;
15921;SDS011;8060;50.948;3.146;2023-05-16T17:53:39;5.93;;;2.00;;
15921;SDS011;8060;50.948;3.146;2023-05-16T17:56:07;7.27;;;1.37;;
15921;SDS011;8060;50.948;3.146;2023-05-16T17:58:35;8.40;;;1.90;;
15921;SDS011;8060;50.948;3.146;2023-05-16T18:01:04;6.23;;;2.37;;
15921;SDS011;8060;50.948;3.146;2023-05-16T18:03:36;8.30;;;2.40;;
15921;SDS011;8060;50.948;3.146;2023-05-16T18:06:04;7.80;;;2.37;;
15921;SDS011;8060;50.948;3.146;2023-05-16T18:08:33;9.13;;;2.50;;
15921;SDS011;8060;50.948;3.146;2023-05-16T18:11:01;9.23;;;2.30;;
15921;SDS011;8060;50.948;3.146;2023-05-16T18:13:30;8.20;;;2.60;;
15921;SDS011;8060;50.948;3.146;2023-05-16T18:15:58;10.43;;;2.57;;
15921;SDS011;8060;50.948;3.146;2023-05-16T18:18:26;11.80;;;2.70;;
15921;SDS011;8060;50.948;3.146;2023-05-16T18:20:55;11.00;;;3.00;;
15921;SDS011;8060;50.948;3.146;2023-05-16T18:23:24;7.67;;;2.53;;
15921;SDS011;8060;50.948;3.146;2023-05-16T18:25:53;11.07;;;2.77;;
15921;SDS011;8060;50.948;3.146;2023-05-16T18:28:21;8.67;;;2.50;;
15921;SDS011;8060;50.948;3.146;2023-05-16T18:30:49;9.47;;;2.77;;
15921;SDS011;8060;50.948;3.146;2023-05-16T18:33:17;7.73;;;2.60;;
15921;SDS011;8060;50.948;3.146;2023-05-16T18:35:46;14.23;;;2.93;;
15921;SDS011;8060;50.948;3.146;2023-05-16T18:38:15;7.27;;;2.43;;
15921;SDS011;8060;50.948;3.146;2023-05-16T18:40:57;10.70;;;3.13;;
15921;SDS011;8060;50.948;3.146;2023-05-16T19:05:54;12.40;;;4.30;;
